SPZO METAR and TAF | Updated Today

SPZO METAR

Alejandro Velasco Astete International Airport

Observation time: 17 min. ago

SPZO 251930Z 31006KT 280V360 9999 SCT040 BKN100 17/02 Q1029 NOSIG RMK BIRD HAZARD RWY 10/28

Need help? Read our tutorial on how to read METARs or read the parsed version below.

Alejandro Velasco Astete International Airport (SPZO) METAR

  • Weather conditions on Wed, 25 May 2022 19:30:00 +0000 (17 min. ago):
  • Present conditions: Dry
  • Clouds: Scattered at 1219 meters; broken sky at 3048 meters
  • Visibility: Greater than 10 km
  • Wind: 310 degrees at 6 knots
  • Temperature: 17 celsius
  • Dew point: 2 celsius
  • Pressure: 1029 millibars
  • Remarks: BIRD HAZARD RWY 10/28


Useful to know...

SPZO TAF

Alejandro Velasco Astete International Airport

TAF SPZO 251700Z 2518/2618 33005KT 9999 SCT040 BKN100 TX20/2519Z TN01/2611Z
Observation time: 2:47 hr. ago
Need help? Read our tutorial on how to read TAFs or read the parsed version below.

Parsed version of TAF for Alejandro Velasco Astete International Airport (SPZO)

  • From 25 May at 18:00 UTC, to day 26 of the month at 18:00 UTC
  • Clouds: Scattered at 1219 meters; broken sky at 3048 meters
  • Visibility: Greater than 10 km
  • Wind: 330 degrees at 5

Airports near SPZO

No airports found within 100nm radius.